Time;durP1;ratioP1;P1;durP2;ratioP2;P2;SDS_P1;SDS_P2;PMS_P1;PMS_P2;Temp;Humidity;BMP_temperature;BMP_pressure;BME280_temperature;BME280_humidity;BME280_pressure;Samples;Min_cycle;Max_cycle;Signal;HPM_P1;HPM_P2
2022/10/18 00:00:31;;;;;;;0.57;0.57;;;;;;;16.87;76.74;101987.34;5215705;28;20037;-83
2022/10/18 00:03:01;;;;;;;0.68;0.68;;;;;;;16.83;76.97;101986.56;5186768;28;20053;-82
2022/10/18 00:05:33;;;;;;;0.47;0.47;;;;;;;16.82;77.08;101979.53;5214800;28;20056;-83
2022/10/18 00:08:03;;;;;;;0.40;0.40;;;;;;;16.81;78.48;101977.84;5201184;28;20030;-81
2022/10/18 00:10:34;;;;;;;0.57;0.57;;;;;;;16.71;79.10;101973.75;5199008;28;20405;-83
2022/10/18 00:13:05;;;;;;;0.70;0.70;;;;;;;16.65;79.02;101977.47;5201214;28;20121;-82
2022/10/18 00:15:35;;;;;;;0.40;0.40;;;;;;;16.73;78.45;101975.41;5201611;28;20047;-83
2022/10/18 00:18:06;;;;;;;0.60;0.60;;;;;;;16.75;79.67;101978.91;5201167;28;20052;-83
2022/10/18 00:20:36;;;;;;;0.35;0.35;;;;;;;16.73;78.98;101975.41;5199392;28;20052;-82
2022/10/18 00:23:07;;;;;;;2.47;0.47;;;;;;;16.76;78.45;101975.34;5180902;28;20036;-83
2022/10/18 00:25:37;;;;;;;0.38;0.38;;;;;;;16.75;78.09;101973.59;5201428;28;20041;-83
2022/10/18 00:28:08;;;;;;;0.47;0.45;;;;;;;16.73;78.19;101969.28;5167957;28;20044;-81
2022/10/18 00:30:38;;;;;;;0.55;0.55;;;;;;;16.76;77.59;101974.44;5201891;28;20110;-82
2022/10/18 00:33:09;;;;;;;0.50;0.50;;;;;;;16.75;77.63;101967.41;5184086;28;20109;-82
2022/10/18 00:35:39;;;;;;;0.52;0.52;;;;;;;16.77;77.38;101962.94;5201317;28;20045;-81
2022/10/18 00:38:10;;;;;;;0.65;0.65;;;;;;;16.76;77.48;101963.84;5197146;28;20112;-82
2022/10/18 00:40:40;;;;;;;0.65;0.65;;;;;;;16.76;77.21;101967.38;5212057;28;20037;-82
2022/10/18 00:43:14;;;;;;;0.50;0.50;;;;;;;16.78;77.10;101968.16;5210413;28;20044;-83
2022/10/18 00:45:45;;;;;;;0.45;0.45;;;;;;;16.74;77.54;101965.66;5199640;28;20524;-81
2022/10/18 00:48:22;;;;;;;0.35;0.35;;;;;;;16.73;77.53;101967.47;5185393;28;20034;-82
2022/10/18 00:50:54;;;;;;;0.30;0.30;;;;;;;16.75;77.29;101964.75;5178484;28;20100;-82
2022/10/18 00:53:24;;;;;;;0.40;0.40;;;;;;;16.73;77.43;101961.31;5184412;28;20482;-82
2022/10/18 00:55:57;;;;;;;0.38;0.38;;;;;;;16.74;77.50;101958.59;5200029;28;20486;-82
2022/10/18 00:58:28;;;;;;;0.65;0.65;;;;;;;16.73;77.69;101954.22;5164866;28;20098;-82
2022/10/18 01:00:59;;;;;;;0.95;0.95;;;;;;;16.73;77.47;101958.66;5181540;28;20037;-83
2022/10/18 01:03:30;;;;;;;1.85;0.82;;;;;;;16.75;77.13;101956.81;5184802;28;20029;-82
2022/10/18 01:06:01;;;;;;;0.55;0.55;;;;;;;16.75;77.12;101940.91;5200338;28;20045;-81
2022/10/18 01:08:58;;;;;;;0.60;0.60;;;;;;;16.72;77.47;101947.19;5200619;28;20029;-83
2022/10/18 01:11:58;;;;;;;1.20;1.17;;;;;;;16.73;77.29;101932.16;5195397;28;20037;-82
2022/10/18 01:14:34;;;;;;;0.32;0.32;;;;;;;16.74;77.18;101933.88;5201300;28;20034;-82
2022/10/18 01:17:07;;;;;;;0.60;0.60;;;;;;;16.74;77.07;101940.06;5205471;28;20565;-82
2022/10/18 01:19:53;;;;;;;0.57;0.57;;;;;;;16.72;77.46;101943.69;5185013;28;20037;-82
2022/10/18 01:22:54;;;;;;;0.93;0.85;;;;;;;16.67;77.56;101944.69;5198794;28;20505;-83
2022/10/18 01:25:36;;;;;;;0.40;0.40;;;;;;;16.74;77.15;101939.16;5200194;28;20041;-80
2022/10/18 01:28:19;;;;;;;0.50;0.50;;;;;;;16.72;77.46;101941.03;5234599;28;20044;-83
2022/10/18 01:30:59;;;;;;;0.65;0.50;;;;;;;16.75;77.45;101940.91;5236827;28;20064;-81
2022/10/18 01:33:45;;;;;;;0.40;0.40;;;;;;;16.75;76.87;101946.22;5233388;28;20037;-81
2022/10/18 01:36:27;;;;;;;1.15;0.90;;;;;;;16.71;77.40;101944.59;5234390;28;20042;-81
2022/10/18 01:39:05;;;;;;;0.30;0.30;;;;;;;16.72;77.09;101951.63;5220013;28;20093;-80
2022/10/18 01:41:38;;;;;;;0.68;0.68;;;;;;;16.74;76.72;101948.00;5217169;28;20053;-83
2022/10/18 01:44:14;;;;;;;0.63;0.63;;;;;;;16.77;76.90;101939.09;5201918;28;20067;-80
2022/10/18 01:46:52;;;;;;;0.55;0.55;;;;;;;16.76;76.91;101945.28;5221787;28;20053;-81
2022/10/18 01:49:24;;;;;;;0.70;0.70;;;;;;;16.74;76.70;101944.47;5204531;28;20101;-80
2022/10/18 01:51:54;;;;;;;0.75;0.75;;;;;;;16.74;76.91;101941.81;5235895;28;20037;-81
2022/10/18 01:54:35;;;;;;;0.40;0.40;;;;;;;16.73;76.92;101942.75;5209289;28;20021;-83
2022/10/18 01:57:15;;;;;;;1.55;1.33;;;;;;;16.71;76.95;101940.16;5187479;28;20104;-81
2022/10/18 01:59:48;;;;;;;1.05;0.95;;;;;;;16.71;76.85;101947.25;5170317;28;20038;-84
2022/10/18 02:02:25;;;;;;;0.57;0.57;;;;;;;16.71;77.04;101949.91;5215898;28;20022;-82
2022/10/18 02:05:13;;;;;;;0.63;0.63;;;;;;;16.69;76.89;101947.31;5203175;28;20046;-83
2022/10/18 02:08:02;;;;;;;0.65;0.65;;;;;;;16.68;77.10;101948.22;5209357;28;20063;-82
2022/10/18 02:10:39;;;;;;;0.75;0.75;;;;;;;16.68;77.08;101943.78;5175578;28;20042;-83
2022/10/18 02:13:13;;;;;;;2.92;0.82;;;;;;;16.63;77.45;101944.84;5202749;28;20033;-81
2022/10/18 02:15:47;;;;;;;1.77;1.50;;;;;;;16.65;77.28;101943.88;5206642;28;20045;-82
2022/10/18 02:18:23;;;;;;;0.38;0.38;;;;;;;16.67;76.80;101947.34;5203359;28;20032;-83
2022/10/18 02:21:00;;;;;;;0.35;0.35;;;;;;;16.70;77.06;101934.91;5197286;28;20060;-82
2022/10/18 02:23:32;;;;;;;1.05;0.73;;;;;;;16.67;77.14;101944.69;5172450;28;20113;-83
2022/10/18 02:26:03;;;;;;;2.13;1.20;;;;;;;16.65;77.16;101941.22;5214172;28;20072;-82
2022/10/18 02:28:34;;;;;;;0.65;0.65;;;;;;;16.64;76.95;101949.22;5171976;28;20025;-84
2022/10/18 02:31:25;;;;;;;0.57;0.57;;;;;;;16.58;77.50;101950.28;5203559;28;20033;-82
2022/10/18 02:34:06;;;;;;;3.95;1.98;;;;;;;16.61;77.10;101946.69;5197688;28;20536;-84
2022/10/18 02:36:45;;;;;;;2.22;1.60;;;;;;;16.66;77.27;101948.25;5184768;28;20517;-83
2022/10/18 02:39:22;;;;;;;1.67;1.58;;;;;;;16.58;78.04;101949.44;5201374;28;20033;-83
2022/10/18 02:41:55;;;;;;;0.47;0.47;;;;;;;16.57;77.86;101945.91;5199314;28;20248;-82
2022/10/18 02:44:26;;;;;;;1.10;0.75;;;;;;;16.58;77.72;101949.44;5187775;28;20035;-82
2022/10/18 02:46:56;;;;;;;0.30;0.30;;;;;;;16.60;77.27;101942.31;5201555;28;20029;-81
2022/10/18 02:49:27;;;;;;;0.55;0.55;;;;;;;16.58;77.49;101947.63;5195938;28;20038;-83
2022/10/18 02:51:57;;;;;;;0.85;0.68;;;;;;;16.64;77.33;101951.88;5183959;28;20114;-82
2022/10/18 02:54:28;;;;;;;1.50;1.15;;;;;;;16.62;77.59;101949.28;5183341;28;20203;-82
2022/10/18 02:57:01;;;;;;;;;;;;;;;16.61;78.42;101946.69;5200198;28;20029;-82
2022/10/18 02:59:34;;;;;;;1.10;0.88;;;;;;;16.54;78.39;101943.38;5170482;28;19920;-82
2022/10/18 03:02:07;;;;;;;0.40;0.40;;;;;;;16.63;77.52;101942.19;5179628;28;20557;-81
2022/10/18 03:04:37;;;;;;;1.65;1.55;;;;;;;16.50;79.14;101944.38;5184895;28;20044;-81
2022/10/18 03:07:08;;;;;;;0.68;0.68;;;;;;;16.54;78.04;101943.38;5170138;28;20026;-82
2022/10/18 03:09:39;;;;;;;4.75;1.10;;;;;;;16.51;78.38;101939.03;5200458;28;20034;-83
2022/10/18 03:12:10;;;;;;;1.25;1.15;;;;;;;16.53;77.77;101941.63;5186402;28;20033;-83
2022/10/18 03:14:40;;;;;;;0.80;0.80;;;;;;;16.49;78.52;101938.22;5183069;28;20076;-82
2022/10/18 03:17:11;;;;;;;1.55;1.45;;;;;;;16.47;78.92;101939.19;5183361;28;20505;-82
2022/10/18 03:19:41;;;;;;;1.15;0.90;;;;;;;16.48;78.57;101935.63;5165390;28;20052;-83
2022/10/18 03:22:12;;;;;;;1.00;1.00;;;;;;;16.46;78.51;101935.66;5200853;28;20529;-83
2022/10/18 03:24:44;;;;;;;0.70;0.70;;;;;;;16.47;78.64;101931.25;5200964;28;20064;-83
2022/10/18 03:27:14;;;;;;;1.30;1.20;;;;;;;16.52;78.06;101934.59;5196933;28;20032;-84
2022/10/18 03:29:45;;;;;;;1.05;1.05;;;;;;;16.56;78.01;101936.25;5197108;28;20045;-83
2022/10/18 03:32:16;;;;;;;1.08;1.08;;;;;;;16.57;77.88;101937.09;5215393;28;20501;-81
2022/10/18 03:34:46;;;;;;;3.20;1.42;;;;;;;16.52;77.96;101934.59;5195644;28;20045;-83
2022/10/18 03:37:17;;;;;;;0.85;0.85;;;;;;;16.51;77.96;101936.38;5202458;28;20037;-83
2022/10/18 03:39:47;;;;;;;1.45;1.35;;;;;;;16.50;78.01;101934.66;5182959;28;20038;-82
2022/10/18 03:42:18;;;;;;;0.60;0.60;;;;;;;16.49;78.08;101929.38;5202090;28;20071;-82
2022/10/18 03:44:48;;;;;;;1.35;1.25;;;;;;;16.49;77.99;101929.38;5196288;28;20056;-83
2022/10/18 03:47:19;;;;;;;1.10;1.05;;;;;;;16.52;77.75;101937.25;5185736;28;20087;-83
2022/10/18 03:49:49;;;;;;;1.35;1.25;;;;;;;16.51;77.98;101938.16;5198644;28;20045;-82
2022/10/18 03:52:20;;;;;;;0.80;0.80;;;;;;;16.50;77.92;101939.06;5197919;28;20029;-80
2022/10/18 03:54:51;;;;;;;0.63;0.63;;;;;;;16.50;77.82;101941.72;5183121;28;20048;-82
2022/10/18 03:57:21;;;;;;;1.20;1.10;;;;;;;16.49;77.72;101930.28;5200509;28;20025;-82
2022/10/18 03:59:52;;;;;;;2.13;1.85;;;;;;;16.48;77.91;101936.47;5198644;28;20041;-82
2022/10/18 04:02:22;;;;;;;1.02;0.98;;;;;;;16.47;77.97;101942.69;5201457;28;20040;-81
2022/10/18 04:04:53;;;;;;;1.38;1.02;;;;;;;16.49;77.77;101935.56;5200158;28;20045;-81
2022/10/18 04:07:25;;;;;;;0.57;0.57;;;;;;;16.49;77.85;101937.34;5202915;28;20548;-83
2022/10/18 04:09:55;;;;;;;1.65;1.13;;;;;;;16.50;77.85;101936.41;5180139;28;20044;-84
2022/10/18 04:12:27;;;;;;;0.60;0.60;;;;;;;16.47;77.90;101945.34;5179510;28;20029;-83
2022/10/18 04:14:58;;;;;;;0.75;0.75;;;;;;;16.49;77.69;101945.28;5163950;28;20065;-83
2022/10/18 04:17:28;;;;;;;1.17;0.75;;;;;;;16.46;77.93;101940.09;5177364;28;20029;-82
2022/10/18 04:19:59;;;;;;;1.45;1.35;;;;;;;16.41;78.28;101948.19;5181819;28;20067;-81
2022/10/18 04:22:29;;;;;;;1.55;1.45;;;;;;;16.47;77.88;101947.13;5196723;28;20032;-81
2022/10/18 04:25:08;;;;;;;2.47;0.80;;;;;;;16.45;78.26;101951.59;5181795;28;20129;-80
2022/10/18 04:27:38;;;;;;;2.05;1.52;;;;;;;16.43;78.25;101945.50;5166050;28;20075;-80
2022/10/18 04:30:10;;;;;;;2.13;1.95;;;;;;;16.52;77.95;101950.50;5201113;28;20196;-79
2022/10/18 04:32:43;;;;;;;0.90;0.90;;;;;;;16.45;78.33;101952.47;5198038;28;20034;-81
2022/10/18 04:35:13;;;;;;;1.40;1.30;;;;;;;16.47;78.21;101955.09;5201889;28;20048;-81
2022/10/18 04:37:47;;;;;;;1.30;1.20;;;;;;;16.44;78.20;101953.41;5182705;28;20037;-82
2022/10/18 04:40:18;;;;;;;0.95;0.95;;;;;;;16.46;77.99;101962.16;5200246;28;20045;-80
2022/10/18 04:42:49;;;;;;;2.33;2.13;;;;;;;16.46;78.23;101956.00;5197124;28;20612;-80
2022/10/18 04:45:20;;;;;;;0.98;0.93;;;;;;;16.46;78.21;101948.91;5183992;28;20149;-82
2022/10/18 04:47:50;;;;;;;1.58;1.48;;;;;;;16.43;78.37;101949.03;5179292;28;20115;-80
2022/10/18 04:50:21;;;;;;;1.02;0.93;;;;;;;16.42;78.37;101959.63;5195313;28;20042;-80
2022/10/18 04:52:52;;;;;;;3.05;2.80;;;;;;;16.50;78.25;101960.25;5203498;28;20037;-80
2022/10/18 04:55:22;;;;;;;0.88;0.82;;;;;;;16.67;78.95;101960.59;5192680;28;20037;-81
2022/10/18 04:57:53;;;;;;;0.65;0.65;;;;;;;16.49;78.48;101951.47;5195126;28;20075;-80
2022/10/18 05:00:24;;;;;;;2.63;2.15;;;;;;;16.46;78.40;101956.00;5184758;28;20040;-81
2022/10/18 05:02:57;;;;;;;0.85;0.85;;;;;;;16.45;78.82;101964.84;5190504;28;20056;-83
2022/10/18 05:05:27;;;;;;;4.22;2.50;;;;;;;16.43;79.08;101962.25;5167048;28;20029;-81
2022/10/18 05:07:57;;;;;;;1.42;1.33;;;;;;;16.44;78.43;101960.47;5160888;28;20025;-81
2022/10/18 05:10:28;;;;;;;1.85;1.50;;;;;;;16.41;78.69;101958.78;5194733;28;20034;-83
2022/10/18 05:12:59;;;;;;;1.48;1.38;;;;;;;16.42;78.95;101959.63;5166405;28;20040;-83
2022/10/18 05:15:29;;;;;;;12.50;1.45;;;;;;;16.48;78.77;101960.31;5197535;28;20053;-83
2022/10/18 05:18:03;;;;;;;1.38;1.27;;;;;;;16.58;79.26;101955.59;5174685;28;20031;-83
2022/10/18 05:20:37;;;;;;;5.82;3.22;;;;;;;16.53;79.90;101963.69;5190219;28;20042;-83
2022/10/18 05:23:11;;;;;;;1.08;0.80;;;;;;;16.45;79.28;101963.06;5178257;28;20056;-83
2022/10/18 05:25:42;;;;;;;1.48;1.13;;;;;;;16.48;79.91;101965.63;5198910;28;20034;-82
2022/10/18 05:28:12;;;;;;;1.67;1.42;;;;;;;16.43;79.01;101962.25;5199082;28;20034;-82
2022/10/18 05:30:43;;;;;;;3.95;1.92;;;;;;;16.41;79.47;101965.84;5198352;28;20067;-83
2022/10/18 05:33:13;;;;;;;0.95;0.75;;;;;;;16.41;79.29;101974.69;5209731;28;21065;-83
2022/10/18 05:35:44;;;;;;;1.80;1.70;;;;;;;16.43;79.81;101979.94;5184705;28;20187;-83
2022/10/18 05:38:14;;;;;;;2.20;1.48;;;;;;;16.37;81.52;101978.31;5166655;28;20108;-82
2022/10/18 05:40:48;;;;;;;2.55;2.35;;;;;;;16.36;79.86;101972.19;5167459;28;20065;-82
2022/10/18 05:43:18;;;;;;;1.50;1.40;;;;;;;16.40;79.39;101977.38;5181352;28;20080;-83
2022/10/18 05:45:50;;;;;;;1.42;1.33;;;;;;;16.42;79.24;101970.25;5167905;28;20033;-82
2022/10/18 05:48:21;;;;;;;1.38;1.30;;;;;;;16.39;79.70;101962.41;5196894;28;20080;-83
2022/10/18 05:50:52;;;;;;;1.77;1.60;;;;;;;16.38;79.52;101963.31;5183060;28;20037;-80
2022/10/18 05:53:25;;;;;;;;;;;;;;;16.36;79.37;101964.22;5211857;28;20036;-83
2022/10/18 05:56:02;;;;;;;0.90;0.85;;;;;;;16.37;79.35;101965.09;5184500;28;20314;-82
2022/10/18 05:58:33;;;;;;;1.50;1.40;;;;;;;16.36;79.43;101964.22;5200359;28;20553;-83
2022/10/18 06:01:04;;;;;;;2.28;2.08;;;;;;;16.44;79.42;101964.00;5197438;28;20045;-82
2022/10/18 06:03:35;;;;;;;1.23;1.13;;;;;;;16.43;78.95;101972.84;5180564;28;20033;-83
2022/10/18 06:06:10;;;;;;;2.20;1.90;;;;;;;16.52;78.60;101971.69;5179230;28;20122;-83
2022/10/18 06:08:42;;;;;;;2.15;1.88;;;;;;;16.45;79.15;101967.50;5180404;28;20033;-83
2022/10/18 06:11:18;;;;;;;1.95;0.95;;;;;;;16.57;78.76;101975.03;5180472;28;20052;-82
2022/10/18 06:13:51;;;;;;;1.77;1.63;;;;;;;16.48;79.45;101978.00;5197607;28;20026;-83
2022/10/18 06:16:21;;;;;;;2.20;1.65;;;;;;;16.42;79.44;101980.84;5163873;28;20037;-84
2022/10/18 06:18:54;;;;;;;3.75;1.58;;;;;;;16.40;79.32;101982.69;5184703;28;20033;-84
2022/10/18 06:21:25;;;;;;;1.27;1.25;;;;;;;16.41;79.18;101993.22;5170628;28;20052;-83
2022/10/18 06:23:57;;;;;;;1.35;1.25;;;;;;;16.42;79.06;101991.44;5183420;28;20034;-83
2022/10/18 06:26:28;;;;;;;0.73;0.73;;;;;;;16.42;78.82;101987.00;5215444;28;20045;-82
2022/10/18 06:28:58;;;;;;;2.90;2.17;;;;;;;16.40;79.61;101990.63;5203285;28;20033;-83
2022/10/18 06:31:29;;;;;;;1.13;0.88;;;;;;;16.40;79.24;101993.28;5199301;28;20039;-82
2022/10/18 06:34:01;;;;;;;1.23;1.15;;;;;;;16.39;79.01;101996.84;5185843;28;20140;-83
2022/10/18 06:36:34;;;;;;;0.90;0.90;;;;;;;16.38;79.16;102000.41;5170476;28;20397;-82
2022/10/18 06:39:05;;;;;;;1.80;1.40;;;;;;;16.40;78.86;101993.28;5187702;28;20030;-82
2022/10/18 06:41:36;;;;;;;1.20;1.17;;;;;;;16.42;78.96;102002.03;5183472;28;20118;-81
2022/10/18 06:44:12;;;;;;;3.10;2.03;;;;;;;16.40;79.22;102002.09;5187860;28;20041;-82
2022/10/18 06:46:44;;;;;;;3.50;2.10;;;;;;;16.35;79.59;102002.22;5200348;28;20042;-83
2022/10/18 06:49:16;;;;;;;3.50;2.63;;;;;;;16.42;80.22;102002.03;5217040;28;20445;-81
2022/10/18 06:51:47;;;;;;;3.22;2.45;;;;;;;16.36;81.16;102014.56;5182534;28;20040;-83
2022/10/18 06:54:18;;;;;;;1.95;1.85;;;;;;;16.49;79.35;102023.00;5184212;28;20044;-82
2022/10/18 06:56:48;;;;;;;4.00;2.60;;;;;;;16.50;80.09;102015.91;5199452;28;20013;-83
2022/10/18 06:59:19;;;;;;;1.08;1.08;;;;;;;16.61;79.34;102027.03;5198101;28;20056;-83
2022/10/18 07:01:50;;;;;;;2.95;1.90;;;;;;;16.42;81.66;102028.50;5196702;28;20112;-83
2022/10/18 07:04:20;;;;;;;1.60;1.25;;;;;;;16.41;80.71;102029.41;5198245;28;20025;-83
2022/10/18 07:06:52;;;;;;;2.20;1.95;;;;;;;16.41;80.28;102032.06;5197164;28;20429;-84
2022/10/18 07:09:23;;;;;;;3.28;2.25;;;;;;;16.34;82.34;102034.06;5198027;28;20040;-83
2022/10/18 07:11:54;;;;;;;1.50;1.08;;;;;;;16.32;82.84;102039.38;5198574;28;20589;-82
2022/10/18 07:14:24;;;;;;;2.28;1.50;;;;;;;16.39;82.46;102044.53;5178271;28;20122;-81
2022/10/18 07:16:58;;;;;;;2.10;1.95;;;;;;;16.34;80.62;102040.22;5179437;28;20084;-81
2022/10/18 07:19:28;;;;;;;1.05;1.02;;;;;;;16.36;81.29;102037.53;5180084;28;20101;-82
2022/10/18 07:21:59;;;;;;;2.28;2.08;;;;;;;16.34;80.78;102042.88;5182250;28;20140;-82
2022/10/18 07:24:31;;;;;;;1.58;1.27;;;;;;;16.32;80.94;102055.28;5179292;28;20601;-81
2022/10/18 07:27:05;;;;;;;4.28;1.85;;;;;;;16.34;80.46;102055.25;5191262;28;20122;-82
2022/10/18 07:29:39;;;;;;;2.78;1.80;;;;;;;16.35;80.72;102054.34;5181938;28;20041;-82
2022/10/18 07:32:14;;;;;;;3.08;2.67;;;;;;;16.41;80.14;102058.56;5198195;28;20056;-82
2022/10/18 07:34:44;;;;;;;24.42;2.15;;;;;;;16.36;80.95;102059.59;5163833;28;20402;-80
2022/10/18 07:37:18;;;;;;;2.35;1.42;;;;;;;16.38;80.33;102063.97;5199592;28;20041;-82
2022/10/18 07:39:51;;;;;;;5.80;2.97;;;;;;;16.44;79.92;102055.81;5195640;28;20049;-80
2022/10/18 07:42:24;;;;;;;2.35;1.45;;;;;;;16.49;79.78;102062.72;5179687;28;20429;-82
2022/10/18 07:44:55;;;;;;;6.15;1.85;;;;;;;16.48;80.23;102086.63;5200279;28;20065;-80
2022/10/18 07:47:31;;;;;;;1.80;1.55;;;;;;;16.47;81.89;102085.75;5175238;28;20126;-81
2022/10/18 07:50:01;;;;;;;1.73;1.40;;;;;;;16.50;80.49;102095.38;5213635;28;20037;-82
2022/10/18 07:52:32;;;;;;;1.92;1.80;;;;;;;16.62;80.33;102089.72;5201603;28;20099;-82
2022/10/18 07:55:03;;;;;;;22.30;3.45;;;;;;;16.50;82.79;102096.25;5201683;28;20033;-81
2022/10/18 07:57:41;;;;;;;1.95;1.85;;;;;;;16.41;82.98;102100.94;5196479;28;20121;-82
2022/10/18 08:00:12;;;;;;;1.55;1.45;;;;;;;16.35;83.84;102089.63;5191456;28;20696;-82
2022/10/18 08:02:44;;;;;;;1.67;1.58;;;;;;;16.59;82.23;102094.25;5193294;28;20043;-81
2022/10/18 08:05:17;;;;;;;3.90;2.47;;;;;;;16.42;82.86;102095.63;5197614;28;20049;-80
2022/10/18 08:07:48;;;;;;;2.22;1.77;;;;;;;16.58;81.45;102103.09;5187752;28;20025;-82
2022/10/18 08:10:35;;;;;;;1.27;1.17;;;;;;;16.50;81.34;102101.56;5258238;27;20128;-80
2022/10/18 08:13:06;;;;;;;2.40;2.20;;;;;;;16.48;82.16;102107.81;5174365;28;20029;-80
2022/10/18 08:15:37;;;;;;;1.85;1.75;;;;;;;16.63;81.51;102111.78;5186648;28;20073;-80
2022/10/18 08:18:14;;;;;;;1.85;1.75;;;;;;;16.61;80.71;102109.19;5175284;28;20061;-81
2022/10/18 08:20:46;;;;;;;1.92;1.65;;;;;;;16.56;81.39;102111.09;5178558;28;20040;-82
2022/10/18 08:23:16;;;;;;;1.98;1.88;;;;;;;16.57;80.72;102118.13;5189723;28;20186;-81
2022/10/18 08:25:48;;;;;;;3.17;2.95;;;;;;;16.64;80.68;102119.69;5177622;28;20040;-82
2022/10/18 08:28:20;;;;;;;3.95;3.15;;;;;;;16.72;82.02;102127.38;5162180;28;20041;-82
2022/10/18 08:30:51;;;;;;;5.65;3.13;;;;;;;16.64;82.87;102125.00;5195051;28;20049;-83
2022/10/18 08:33:22;;;;;;;2.53;2.40;;;;;;;16.60;81.45;102123.34;5187178;28;20030;-82
2022/10/18 08:35:54;;;;;;;5.15;3.42;;;;;;;16.67;81.19;102129.31;5173702;28;20046;-81
2022/10/18 08:38:30;;;;;;;2.50;2.30;;;;;;;16.76;80.92;102129.03;5175815;28;20116;-82
2022/10/18 08:41:34;;;;;;;2.05;1.95;;;;;;;16.72;80.92;102131.84;5183890;23;20046;-83
2022/10/18 08:44:04;;;;;;;;;;;;;;;16.69;81.01;102138.09;5148341;28;20034;-84
2022/10/18 08:46:37;;;;;;;3.60;2.65;;;;;;;16.73;80.72;102133.59;5171615;28;20364;-84
2022/10/18 08:49:18;;;;;;;9.18;3.92;;;;;;;16.83;80.69;102138.53;5151425;28;20033;-84
2022/10/18 08:51:50;;;;;;;4.18;2.58;;;;;;;16.82;80.82;102139.44;5154818;28;20062;-83
2022/10/18 08:54:43;;;;;;;5.27;3.03;;;;;;;16.82;82.01;102141.22;5117932;28;20042;-84
2022/10/18 08:57:16;;;;;;;3.88;3.53;;;;;;;16.87;81.97;102130.47;5122373;28;20014;-84
2022/10/18 08:59:47;;;;;;;9.57;4.35;;;;;;;16.93;80.97;102125.88;5131799;28;20042;-83
2022/10/18 09:02:45;;;;;;;2.25;2.05;;;;;;;16.81;81.77;102134.22;5148697;28;20057;-83
2022/10/18 09:05:27;;;;;;;4.35;2.90;;;;;;;16.87;80.96;102136.66;5132010;28;20050;-83
2022/10/18 09:08:10;;;;;;;3.55;3.08;;;;;;;16.85;81.59;102146.44;5122134;28;20427;-83
2022/10/18 09:10:59;;;;;;;5.03;3.40;;;;;;;16.95;80.97;102139.09;5138335;28;20054;-83
2022/10/18 09:13:42;;;;;;;4.43;3.67;;;;;;;17.11;80.95;102142.13;5150956;28;20031;-82
2022/10/18 09:16:41;;;;;;;8.15;2.88;;;;;;;17.03;80.74;102141.50;5153000;28;20065;-84
2022/10/18 09:19:17;;;;;;;2.65;2.35;;;;;;;17.01;81.01;102146.00;5119576;28;20572;-84
2022/10/18 09:21:55;;;;;;;5.80;4.40;;;;;;;16.98;82.23;102150.47;5136542;28;20039;-82
2022/10/18 09:24:35;;;;;;;4.82;4.07;;;;;;;16.96;82.10;102151.44;5155519;28;20042;-83
2022/10/18 09:27:17;;;;;;;5.40;4.20;;;;;;;17.00;81.72;102163.69;5103510;28;20059;-84
2022/10/18 09:30:22;;;;;;;6.40;5.10;;;;;;;17.14;81.17;102155.31;5121783;28;20047;-84
2022/10/18 09:32:58;;;;;;;6.03;4.45;;;;;;;17.15;82.25;102157.03;5119487;28;20062;-83
2022/10/18 09:35:47;;;;;;;5.70;4.85;;;;;;;17.11;81.21;102155.41;5120894;28;20794;-83
2022/10/18 09:38:23;;;;;;;4.60;4.15;;;;;;;17.11;81.00;102166.00;5123082;28;20039;-84
2022/10/18 09:40:57;;;;;;;5.18;4.53;;;;;;;17.09;81.06;102165.19;5119885;28;20101;-85
2022/10/18 09:43:47;;;;;;;4.40;2.72;;;;;;;17.11;80.90;102179.25;5123679;28;20035;-84
2022/10/18 09:46:20;;;;;;;5.95;2.90;;;;;;;17.11;81.92;102180.13;5107224;28;20592;-84
2022/10/18 09:49:09;;;;;;;4.90;4.05;;;;;;;17.18;81.59;102175.50;5108640;28;20035;-84
2022/10/18 09:51:41;;;;;;;8.35;6.00;;;;;;;17.17;82.17;102179.06;5104870;28;20050;-84
2022/10/18 09:54:20;;;;;;;4.63;4.18;;;;;;;17.13;81.47;102185.41;5122949;28;20601;-84
2022/10/18 09:56:54;;;;;;;6.53;5.65;;;;;;;17.20;80.97;102186.94;5108245;28;20152;-84
2022/10/18 09:59:39;;;;;;;8.60;6.10;;;;;;;17.14;81.45;102182.69;5119628;28;20090;-83
2022/10/18 10:02:18;;;;;;;3.97;3.65;;;;;;;17.18;82.53;102180.81;5124915;28;20310;-83
2022/10/18 10:04:50;;;;;;;8.77;5.80;;;;;;;17.19;81.30;102190.50;5135402;28;20415;-84
2022/10/18 10:07:27;;;;;;;5.30;4.43;;;;;;;17.23;81.77;102186.81;5122855;28;20039;-83
2022/10/18 10:10:05;;;;;;;5.47;5.05;;;;;;;17.14;82.73;102185.34;5106010;28;20042;-84
2022/10/18 10:12:38;;;;;;;8.00;5.25;;;;;;;17.21;82.03;102193.97;5151499;28;20034;-84
2022/10/18 10:15:29;;;;;;;15.20;8.02;;;;;;;17.26;82.18;102197.34;5154301;28;20667;-84
2022/10/18 10:18:28;;;;;;;9.43;7.00;;;;;;;17.19;83.11;102194.94;5123172;28;20338;-87
2022/10/18 10:21:04;;;;;;;9.10;5.88;;;;;;;17.14;82.48;102193.28;5070835;28;20057;-85
2022/10/18 10:23:44;;;;;;;7.63;5.07;;;;;;;17.13;82.20;102188.06;5112883;28;20050;-84
2022/10/18 10:26:30;;;;;;;4.85;4.43;;;;;;;17.15;82.65;102199.44;5126091;28;20039;-85
2022/10/18 10:29:24;;;;;;;8.15;5.78;;;;;;;17.14;82.04;102203.91;5111200;28;20528;-86
2022/10/18 10:32:03;;;;;;;13.25;3.92;;;;;;;17.12;81.89;102212.81;5110153;28;20078;-86
2022/10/18 10:34:39;;;;;;;4.60;4.13;;;;;;;17.04;82.51;102217.50;5130955;28;20047;-86
2022/10/18 10:37:38;;;;;;;5.60;4.45;;;;;;;17.14;81.77;102218.97;5112125;28;20421;-86
2022/10/18 10:40:22;;;;;;;5.72;4.75;;;;;;;17.11;81.63;102219.03;5120414;28;20678;-85
2022/10/18 10:43:05;;;;;;;3.80;2.90;;;;;;;17.11;82.05;102224.34;5128037;28;20047;-84
2022/10/18 10:45:40;;;;;;;4.38;3.05;;;;;;;17.18;81.66;102219.72;5128347;28;20039;-84
2022/10/18 10:48:17;;;;;;;4.25;3.90;;;;;;;17.12;81.35;102215.47;5126144;28;20039;-84
2022/10/18 10:51:06;;;;;;;3.75;3.47;;;;;;;17.19;81.20;102211.72;5113923;28;20050;-84
2022/10/18 10:53:45;;;;;;;4.30;3.90;;;;;;;17.11;81.05;102211.09;5140106;28;20098;-85
2022/10/18 10:56:31;;;;;;;4.88;2.75;;;;;;;17.09;80.94;102212.91;5111665;28;20035;-84
2022/10/18 10:59:23;;;;;;;8.10;4.03;;;;;;;17.14;80.90;102213.66;5137602;28;20143;-85
2022/10/18 11:02:12;;;;;;;15.68;3.35;;;;;;;17.12;80.96;102218.13;5115650;28;20382;-84
2022/10/18 11:04:48;;;;;;;5.97;4.05;;;;;;;17.17;80.87;102224.16;5129019;28;20058;-85
2022/10/18 11:07:27;;;;;;;3.63;3.33;;;;;;;17.17;80.73;102221.50;5127143;28;20094;-85
2022/10/18 11:10:11;;;;;;;11.15;4.53;;;;;;;17.14;80.62;102218.97;5135945;28;20153;-85
2022/10/18 11:12:48;;;;;;;3.40;2.90;;;;;;;17.10;80.78;102212.88;5128656;28;20065;-84
2022/10/18 11:15:48;;;;;;;6.95;2.25;;;;;;;17.07;80.76;102209.44;5140483;28;20042;-85
2022/10/18 11:18:34;;;;;;;1.90;1.80;;;;;;;17.06;81.03;102216.53;5126697;28;20049;-84
2022/10/18 11:21:12;;;;;;;6.68;3.25;;;;;;;17.05;80.85;102220.09;5109384;28;20045;-83
2022/10/18 11:23:44;;;;;;;3.22;2.90;;;;;;;17.26;80.22;102215.06;5119601;28;20122;-85
2022/10/18 11:26:17;;;;;;;4.43;3.13;;;;;;;17.29;80.66;102223.78;5104811;28;20031;-85
2022/10/18 11:29:24;;;;;;;3.15;2.88;;;;;;;17.30;80.08;102217.56;5126480;28;20113;-84
2022/10/18 11:32:12;;;;;;;3.65;2.70;;;;;;;17.25;80.34;102210.66;5127473;28;20050;-84
2022/10/18 11:35:00;;;;;;;2.50;2.17;;;;;;;17.17;80.75;102205.59;5133965;28;20047;-84
2022/10/18 11:37:41;;;;;;;4.68;2.20;;;;;;;17.29;80.80;102209.63;5137138;28;20510;-86
2022/10/18 11:40:32;;;;;;;3.17;2.53;;;;;;;17.26;80.61;102207.94;5121381;28;20051;-84
2022/10/18 11:43:32;;;;;;;3.60;2.70;;;;;;;17.41;79.87;102205.72;5121354;28;20544;-84
2022/10/18 11:46:05;;;;;;;3.42;3.13;;;;;;;17.38;79.95;102196.06;5120029;28;20042;-84
2022/10/18 11:48:45;;;;;;;6.32;3.70;;;;;;;17.44;79.73;102195.03;5135898;28;20347;-85
2022/10/18 11:51:25;;;;;;;1.83;1.70;;;;;;;17.39;78.31;102194.31;5132657;28;20062;-84
2022/10/18 11:54:21;;;;;;;3.13;2.08;;;;;;;17.40;77.25;102194.25;5131186;28;20073;-85
2022/10/18 11:57:36;;;;;;;4.32;2.60;;;;;;;17.47;77.93;102184.31;5113453;28;20918;-85
2022/10/18 12:00:13;;;;;;;2.78;1.90;;;;;;;17.50;78.36;102197.47;5101954;28;20035;-84
2022/10/18 12:03:08;;;;;;;4.22;2.45;;;;;;;17.52;78.67;102192.97;5104818;28;20050;-84
2022/10/18 12:05:41;;;;;;;3.28;1.77;;;;;;;17.58;79.09;102191.91;5146585;28;20042;-85